createdAt,value
2018-08-27T00:00:35.000Z,31
2018-08-27T00:02:35.000Z,31
2018-08-27T00:04:20.000Z,31
2018-08-27T00:05:35.000Z,30.9
2018-08-27T00:07:35.000Z,30.9
2018-08-27T00:08:35.000Z,30.9
2018-08-27T00:09:35.000Z,30.9
2018-08-27T00:11:35.000Z,30.9
2018-08-27T00:13:35.000Z,30.9
2018-08-27T00:15:35.000Z,30.9
2018-08-27T00:16:35.000Z,30.9
2018-08-27T00:17:35.000Z,30.9
2018-08-27T00:19:35.000Z,31
2018-08-27T00:21:20.000Z,31
2018-08-27T00:22:35.000Z,30.9
2018-08-27T00:24:35.000Z,30.8
2018-08-27T00:26:36.000Z,30.8
2018-08-27T00:28:36.000Z,30.7
2018-08-27T00:30:35.000Z,30.6
2018-08-27T00:31:36.000Z,30.7
2018-08-27T00:33:20.000Z,30.7
2018-08-27T00:34:36.000Z,30.7
2018-08-27T00:35:36.000Z,30.8
2018-08-27T00:36:36.000Z,30.8
2018-08-27T00:38:36.000Z,30.9
2018-08-27T00:40:36.000Z,30.9
2018-08-27T00:42:36.000Z,30.8
2018-08-27T00:43:36.000Z,30.8
2018-08-27T00:44:36.000Z,30.8
2018-08-27T00:46:36.000Z,30.8
2018-08-27T00:47:36.000Z,30.8
2018-08-27T00:48:36.000Z,30.9
2018-08-27T00:50:36.000Z,30.9
2018-08-27T00:52:36.000Z,30.9
2018-08-27T00:54:36.000Z,30.9
2018-08-27T00:56:36.000Z,30.8
2018-08-27T00:57:36.000Z,30.8
2018-08-27T00:59:36.000Z,30.8
2018-08-27T01:00:36.000Z,30.8
2018-08-27T01:02:36.000Z,30.8
2018-08-27T01:04:36.000Z,30.8
2018-08-27T01:05:36.000Z,30.7
2018-08-27T01:07:36.000Z,30.8
2018-08-27T01:09:36.000Z,30.7
2018-08-27T01:11:36.000Z,30.6
2018-08-27T01:13:36.000Z,30.6
2018-08-27T01:14:36.000Z,30.7
2018-08-27T01:15:36.000Z,30.7
2018-08-27T01:17:36.000Z,30.8
2018-08-27T01:19:36.000Z,30.8
2018-08-27T01:21:36.000Z,30.7
2018-08-27T01:23:36.000Z,30.7
2018-08-27T01:24:36.000Z,30.7
2018-08-27T01:26:36.000Z,30.7
2018-08-27T01:28:36.000Z,30.6
2018-08-27T01:30:35.000Z,30.6
2018-08-27T01:31:35.000Z,30.6
2018-08-27T01:32:35.000Z,30.6
2018-08-27T01:33:35.000Z,30.7
2018-08-27T01:35:20.000Z,30.8
2018-08-27T01:36:35.000Z,30.8
2018-08-27T01:38:35.000Z,30.8
2018-08-27T01:39:35.000Z,30.8
2018-08-27T01:40:35.000Z,30.8
2018-08-27T01:42:35.000Z,30.8
2018-08-27T01:44:35.000Z,30.8
2018-08-27T01:46:35.000Z,30.8
2018-08-27T01:48:35.000Z,30.7
2018-08-27T01:50:35.000Z,30.6
2018-08-27T01:52:35.000Z,30.6
2018-08-27T01:54:35.000Z,30.6
2018-08-27T01:56:35.000Z,30.6
2018-08-27T01:57:35.000Z,30.6
2018-08-27T01:59:35.000Z,30.7
2018-08-27T02:00:35.000Z,30.7
2018-08-27T02:01:35.000Z,30.7
2018-08-27T02:03:20.000Z,30.8
2018-08-27T02:04:35.000Z,30.8
2018-08-27T02:06:20.000Z,30.8
2018-08-27T02:07:35.000Z,30.7
2018-08-27T02:08:35.000Z,30.7
2018-08-27T02:09:35.000Z,30.8
2018-08-27T02:10:35.000Z,30.8
2018-08-27T02:11:35.000Z,30.9
2018-08-27T02:13:35.000Z,30.9
2018-08-27T02:15:35.000Z,30.9
2018-08-27T02:17:35.000Z,30.8
2018-08-27T02:19:35.000Z,30.7
2018-08-27T02:20:35.000Z,30.7
2018-08-27T02:21:35.000Z,30.7
2018-08-27T02:23:35.000Z,30.7
2018-08-27T02:24:35.000Z,30.7
2018-08-27T02:25:35.000Z,30.8
2018-08-27T02:27:35.000Z,30.8
2018-08-27T02:28:35.000Z,30.8
2018-08-27T02:30:35.000Z,30.9
2018-08-27T02:32:35.000Z,30.8
2018-08-27T02:33:35.000Z,30.8
2018-08-27T03:13:29.000Z,28.6
2018-08-27T03:15:15.000Z,28.7
2018-08-27T03:16:15.000Z,28.9
2018-08-27T03:18:15.000Z,29.2
2018-08-27T03:19:15.000Z,29.4
2018-08-27T03:20:15.000Z,29.5
2018-08-27T03:22:15.000Z,29.8
2018-08-27T03:23:15.000Z,29.9
2018-08-27T03:24:15.000Z,30.1
2018-08-27T03:25:15.000Z,30.2
2018-08-27T03:27:15.000Z,30.3
2018-08-27T03:28:15.000Z,30.4
2018-08-27T03:30:15.000Z,30.4
2018-08-27T03:31:15.000Z,30.4
2018-08-27T03:33:00.000Z,30.5
2018-08-27T03:34:15.000Z,30.4
2018-08-27T03:36:16.000Z,30.4
2018-08-27T03:38:16.000Z,30.4
2018-08-27T03:40:16.000Z,30.4
2018-08-27T03:42:16.000Z,30.4
2018-08-27T03:44:16.000Z,30.4
2018-08-27T03:46:16.000Z,30.4
2018-08-27T03:48:16.000Z,30.3
2018-08-27T03:49:16.000Z,30.3
2018-08-27T03:50:16.000Z,30.4
2018-08-27T03:52:16.000Z,30.5
2018-08-27T03:54:16.000Z,30.4
2018-08-27T03:56:16.000Z,30.4
2018-08-27T03:57:16.000Z,30.4
2018-08-27T03:59:16.000Z,30.4
2018-08-27T04:01:16.000Z,30.4
2018-08-27T04:03:16.000Z,30.4
2018-08-27T04:05:16.000Z,30.3
2018-08-27T04:06:16.000Z,30.3
2018-08-27T04:07:16.000Z,30.4
2018-08-27T04:08:16.000Z,30.5
2018-08-27T04:09:16.000Z,30.5
2018-08-27T04:11:16.000Z,30.5
2018-08-27T04:12:16.000Z,30.6
2018-08-27T04:13:16.000Z,30.6
2018-08-27T04:15:16.000Z,30.6
2018-08-27T04:17:16.000Z,30.6
2018-08-27T04:19:16.000Z,30.5
2018-08-27T04:20:16.000Z,30.5
2018-08-27T04:22:16.000Z,30.5
2018-08-27T04:24:16.000Z,30.5
2018-08-27T04:25:16.000Z,30.5
2018-08-27T04:26:16.000Z,30.6
2018-08-27T04:28:16.000Z,30.6
2018-08-27T04:29:16.000Z,30.3
2018-08-27T04:31:16.000Z,29.7
2018-08-27T04:33:16.000Z,29.1
2018-08-27T04:35:16.000Z,28.6
2018-08-27T04:36:16.000Z,28.5
2018-08-27T04:38:16.000Z,28.2
2018-08-27T04:39:15.000Z,28.1
2018-08-27T04:41:15.000Z,28
2018-08-27T04:43:15.000Z,27.8
2018-08-27T04:44:15.000Z,27.7
2018-08-27T04:45:15.000Z,27.6
2018-08-27T04:46:15.000Z,27.6
2018-08-27T04:48:15.000Z,27.6
2018-08-27T04:50:15.000Z,27.4
2018-08-27T04:52:15.000Z,27.2
2018-08-27T04:53:15.000Z,27.2
2018-08-27T04:55:15.000Z,27.2
2018-08-27T04:56:15.000Z,27.2
2018-08-27T04:57:15.000Z,27.2
2018-08-27T04:58:15.000Z,27.3
2018-08-27T05:00:15.000Z,27.3
2018-08-27T05:02:00.000Z,27.2
2018-08-27T05:03:15.000Z,27.1
2018-08-27T05:05:15.000Z,27.1
2018-08-27T05:06:15.000Z,27
2018-08-27T05:08:15.000Z,27
2018-08-27T05:09:15.000Z,27
2018-08-27T05:10:15.000Z,27.1
2018-08-27T05:11:15.000Z,27.2
2018-08-27T05:12:15.000Z,27.2
2018-08-27T05:13:15.000Z,27.2
2018-08-27T05:14:15.000Z,27.1
2018-08-27T05:16:15.000Z,27.1
2018-08-27T05:18:15.000Z,27
2018-08-27T05:20:15.000Z,26.8
2018-08-27T05:21:15.000Z,26.8
2018-08-27T05:23:15.000Z,26.7
2018-08-27T05:25:15.000Z,26.6
2018-08-27T05:27:15.000Z,26.6
2018-08-27T05:29:15.000Z,26.5
2018-08-27T05:30:15.000Z,26.5
2018-08-27T05:31:15.000Z,26.6
2018-08-27T05:33:15.000Z,26.6
2018-08-27T05:35:15.000Z,26.6
2018-08-27T05:37:15.000Z,26.5
2018-08-27T05:38:15.000Z,26.5
2018-08-27T05:40:15.000Z,26.5
2018-08-27T05:41:15.000Z,26.5
2018-08-27T05:43:16.000Z,26.5
2018-08-27T05:44:16.000Z,26.6
2018-08-27T05:46:16.000Z,26.6
2018-08-27T05:48:16.000Z,26.6
2018-08-27T05:50:16.000Z,26.6
2018-08-27T05:52:16.000Z,26.5
2018-08-27T05:53:16.000Z,26.5
2018-08-27T05:54:16.000Z,26.5
2018-08-27T05:55:16.000Z,26.6
2018-08-27T05:57:16.000Z,26.7
2018-08-27T05:58:16.000Z,26.7
2018-08-27T06:00:16.000Z,26.7
2018-08-27T06:01:16.000Z,26.7
2018-08-27T06:03:16.000Z,26.8
2018-08-27T06:05:16.000Z,26.7
2018-08-27T06:06:16.000Z,26.7
2018-08-27T06:08:16.000Z,26.6
2018-08-27T06:09:16.000Z,26.6
2018-08-27T06:10:16.000Z,26.6
2018-08-27T06:12:16.000Z,26.6
2018-08-27T06:13:16.000Z,26.6
2018-08-27T06:14:16.000Z,26.6
2018-08-27T06:15:16.000Z,26.6
2018-08-27T06:16:16.000Z,26.7
2018-08-27T06:17:16.000Z,26.8
2018-08-27T06:18:16.000Z,26.8
2018-08-27T06:20:16.000Z,26.8
2018-08-27T06:22:16.000Z,26.7
2018-08-27T06:24:16.000Z,26.6
2018-08-27T06:26:16.000Z,26.6
2018-08-27T06:28:16.000Z,26.6
2018-08-27T06:29:16.000Z,26.6
2018-08-27T06:30:16.000Z,26.6
2018-08-27T06:31:16.000Z,26.7
2018-08-27T06:32:16.000Z,26.7
2018-08-27T06:34:00.000Z,26.8
2018-08-27T06:35:16.000Z,26.8
2018-08-27T06:37:16.000Z,26.7
2018-08-27T06:38:16.000Z,26.8
2018-08-27T06:39:16.000Z,26.8
2018-08-27T06:41:00.000Z,26.8
2018-08-27T06:42:16.000Z,26.8
2018-08-27T06:44:16.000Z,26.8
2018-08-27T06:46:16.000Z,26.8
2018-08-27T06:48:16.000Z,26.8
2018-08-27T06:50:16.000Z,26.7
2018-08-27T06:51:16.000Z,26.8
2018-08-27T06:52:16.000Z,26.9
2018-08-27T06:53:16.000Z,27
2018-08-27T06:55:16.000Z,27.1
2018-08-27T06:57:16.000Z,27.1
2018-08-27T06:59:16.000Z,27.1
2018-08-27T07:00:16.000Z,27.1
2018-08-27T07:01:16.000Z,27.2
2018-08-27T07:03:16.000Z,27.3
2018-08-27T07:04:16.000Z,27.3
2018-08-27T07:05:16.000Z,27.3
2018-08-27T07:07:16.000Z,27.4
2018-08-27T07:08:16.000Z,27.4
2018-08-27T07:10:16.000Z,27.4
2018-08-27T07:11:16.000Z,27.4
2018-08-27T07:13:16.000Z,27.4
2018-08-27T07:15:16.000Z,27.4
2018-08-27T07:17:16.000Z,27.3
2018-08-27T07:18:16.000Z,27.4
2018-08-27T07:20:16.000Z,27.5
2018-08-27T07:22:16.000Z,27.4
2018-08-27T07:23:16.000Z,27.4
2018-08-27T07:25:16.000Z,27.3
2018-08-27T07:27:16.000Z,27.3
2018-08-27T07:29:00.000Z,27.2
2018-08-27T07:30:16.000Z,27.2
2018-08-27T07:32:16.000Z,27.1
2018-08-27T07:34:16.000Z,27.1
2018-08-27T07:35:16.000Z,27.2
2018-08-27T07:36:16.000Z,27.2
2018-08-27T07:37:16.000Z,27.4
2018-08-27T07:39:16.000Z,27.5
2018-08-27T07:41:16.000Z,27.4
2018-08-27T07:42:16.000Z,27.4
2018-08-27T07:44:16.000Z,27.4
2018-08-27T07:45:16.000Z,27.4
2018-08-27T07:47:16.000Z,27.4
2018-08-27T07:48:16.000Z,27.4
2018-08-27T07:49:16.000Z,27.5
2018-08-27T07:51:16.000Z,27.5
2018-08-27T07:53:16.000Z,27.4
2018-08-27T07:54:16.000Z,27.4
2018-08-27T07:56:16.000Z,27.6
2018-08-27T07:58:16.000Z,27.7
2018-08-27T07:59:16.000Z,27.8
2018-08-27T08:01:16.000Z,27.9
2018-08-27T08:02:16.000Z,27.9
2018-08-27T08:04:16.000Z,27.8
2018-08-27T08:05:16.000Z,27.7
2018-08-27T08:07:00.000Z,27.6
2018-08-27T08:08:16.000Z,27.5
2018-08-27T08:09:16.000Z,27.5
2018-08-27T08:10:16.000Z,27.6
2018-08-27T08:12:16.000Z,27.7
2018-08-27T08:14:16.000Z,27.6
2018-08-27T08:15:16.000Z,27.6
2018-08-27T08:17:00.000Z,27.7
2018-08-27T08:18:16.000Z,27.7
2018-08-27T08:19:16.000Z,27.7
2018-08-27T08:21:16.000Z,27.8
2018-08-27T08:22:16.000Z,27.8
2018-08-27T08:24:16.000Z,27.9
2018-08-27T08:25:16.000Z,27.9
2018-08-27T08:26:16.000Z,27.9
2018-08-27T08:27:16.000Z,28
2018-08-27T08:28:16.000Z,28.1
2018-08-27T08:30:16.000Z,28.2
2018-08-27T08:31:16.000Z,28.2
2018-08-27T08:33:16.000Z,28.1
2018-08-27T08:35:16.000Z,28.1
2018-08-27T08:36:16.000Z,28.1
2018-08-27T08:38:16.000Z,28.1
2018-08-27T08:39:16.000Z,28.1
2018-08-27T08:40:16.000Z,28.2
2018-08-27T08:42:16.000Z,28.2
2018-08-27T08:43:16.000Z,28.2
2018-08-27T08:45:16.000Z,28.3
2018-08-27T08:46:16.000Z,28.3
2018-08-27T08:48:16.000Z,28.2
2018-08-27T08:50:16.000Z,28.1
2018-08-27T08:52:16.000Z,28
2018-08-27T08:54:16.000Z,28
2018-08-27T08:55:16.000Z,28
2018-08-27T08:57:16.000Z,28
2018-08-27T08:59:16.000Z,28
2018-08-27T09:01:16.000Z,27.9
2018-08-27T09:03:01.000Z,27.9
2018-08-27T09:04:16.000Z,27.9
2018-08-27T09:06:16.000Z,27.8
2018-08-27T09:07:16.000Z,27.8
2018-08-27T09:09:16.000Z,27.9
2018-08-27T09:10:16.000Z,27.9
2018-08-27T09:12:16.000Z,27.9
2018-08-27T09:14:16.000Z,27.9
2018-08-27T09:15:16.000Z,27.9
2018-08-27T09:17:16.000Z,27.9
2018-08-27T09:18:16.000Z,27.9
2018-08-27T09:20:16.000Z,28
2018-08-27T09:21:16.000Z,28.1
2018-08-27T09:23:16.000Z,28.2
2018-08-27T09:24:16.000Z,28.2
2018-08-27T09:26:16.000Z,28.3
2018-08-27T09:27:16.000Z,28.3
2018-08-27T09:29:16.000Z,28.5
2018-08-27T09:30:16.000Z,28.5
2018-08-27T09:32:16.000Z,28.5
2018-08-27T09:34:16.000Z,28.6
2018-08-27T09:36:16.000Z,28.5
2018-08-27T09:38:16.000Z,28.5
2018-08-27T09:39:16.000Z,28.5
2018-08-27T09:40:16.000Z,28.5
2018-08-27T09:42:01.000Z,28.6
2018-08-27T09:43:16.000Z,28.6
2018-08-27T09:45:16.000Z,28.7
2018-08-27T09:46:16.000Z,28.8
2018-08-27T09:47:16.000Z,28.9
2018-08-27T09:51:02.000Z,28.5
2018-08-27T09:53:02.000Z,28.6
2018-08-27T09:55:02.000Z,28.9
2018-08-27T09:56:02.000Z,29
2018-08-27T09:57:01.000Z,29.2
2018-08-27T09:59:01.000Z,29.5
2018-08-27T10:01:01.000Z,29.6
2018-08-27T10:02:01.000Z,29.6
2018-08-27T10:03:01.000Z,29.6
2018-08-27T10:04:46.000Z,29.6
2018-08-27T10:06:01.000Z,29.6
2018-08-27T10:07:01.000Z,29.6
2018-08-27T10:08:46.000Z,29.6
2018-08-27T10:10:01.000Z,29.6
2018-08-27T10:12:01.000Z,29.5
2018-08-27T10:13:01.000Z,29.5
2018-08-27T10:15:01.000Z,29.5
2018-08-27T10:16:01.000Z,29.5
2018-08-27T10:17:46.000Z,29.5
2018-08-27T10:19:01.000Z,29.4
2018-08-27T10:20:46.000Z,29.4
2018-08-27T10:22:01.000Z,29.4
2018-08-27T10:23:01.000Z,29.4
2018-08-27T10:24:01.000Z,29.5
2018-08-27T10:26:01.000Z,29.6
2018-08-27T10:27:01.000Z,29.7
2018-08-27T10:29:01.000Z,29.8
2018-08-27T10:30:01.000Z,29.8
2018-08-27T10:32:01.000Z,30.1
2018-08-27T10:34:01.000Z,29.9
2018-08-27T10:36:01.000Z,29.7
2018-08-27T10:37:01.000Z,29.6
2018-08-27T10:39:01.000Z,29.6
2018-08-27T10:41:01.000Z,29.5
2018-08-27T10:42:01.000Z,29.4
2018-08-27T10:44:01.000Z,29.4
2018-08-27T10:45:01.000Z,29.3
2018-08-27T10:47:01.000Z,29.4
2018-08-27T10:48:01.000Z,29.4
2018-08-27T10:49:01.000Z,29.5
2018-08-27T10:51:01.000Z,29.6
2018-08-27T10:52:01.000Z,29.6
2018-08-27T10:55:55.000Z,30.1
2018-08-27T10:57:55.000Z,30.1
2018-08-27T10:58:55.000Z,30.1
2018-08-27T11:00:55.000Z,30
2018-08-27T11:01:55.000Z,30
2018-08-27T11:03:55.000Z,29.8
2018-08-27T11:04:55.000Z,29.8
2018-08-27T11:06:55.000Z,29.7
2018-08-27T11:08:55.000Z,29.6
2018-08-27T11:10:55.000Z,29.4
2018-08-27T11:11:55.000Z,29.3
2018-08-27T11:13:55.000Z,29.3
2018-08-27T11:14:55.000Z,29.2
2018-08-27T11:16:55.000Z,29.3
2018-08-27T11:17:55.000Z,29.3
2018-08-27T11:19:55.000Z,29.3
2018-08-27T11:21:55.000Z,29.3
2018-08-27T11:23:39.000Z,29.3
2018-08-27T11:24:55.000Z,29.3
2018-08-27T11:25:55.000Z,29.3
2018-08-27T11:26:55.000Z,29.6
2018-08-27T11:28:55.000Z,30.4
2018-08-27T11:29:55.000Z,30.6
2018-08-27T11:30:55.000Z,31.1
2018-08-27T11:32:55.000Z,32.4
2018-08-27T11:33:55.000Z,33
2018-08-27T11:35:55.000Z,34.2
2018-08-27T11:36:55.000Z,34.5
2018-08-27T11:38:55.000Z,35
2018-08-27T11:39:55.000Z,34.9
2018-08-27T11:41:55.000Z,34.7
2018-08-27T11:42:55.000Z,35.2
2018-08-27T11:44:55.000Z,35.8
2018-08-27T11:45:55.000Z,36.1
2018-08-27T11:47:55.000Z,36.1
2018-08-27T11:49:55.000Z,36.4
2018-08-27T11:50:55.000Z,36.5
2018-08-27T11:51:55.000Z,36.4
2018-08-27T11:53:55.000Z,35.3
2018-08-27T11:54:55.000Z,34.7
2018-08-27T11:56:55.000Z,33.7
2018-08-27T11:58:39.000Z,33
2018-08-27T11:59:55.000Z,32.6
2018-08-27T12:00:55.000Z,32.3
2018-08-27T12:01:55.000Z,32.2
2018-08-27T12:03:55.000Z,31.9
2018-08-27T12:05:55.000Z,31.6
2018-08-27T12:06:55.000Z,31.5
2018-08-27T12:08:55.000Z,31.3
2018-08-27T12:09:55.000Z,31.2
2018-08-27T12:11:55.000Z,31.1
2018-08-27T12:12:55.000Z,31.1
2018-08-27T12:14:55.000Z,30.9
2018-08-27T12:15:55.000Z,30.9
2018-08-27T12:17:55.000Z,30.8
2018-08-27T12:18:55.000Z,30.8
2018-08-27T12:19:55.000Z,30.8
2018-08-27T12:21:55.000Z,30.7
2018-08-27T12:23:55.000Z,30.6
2018-08-27T12:24:55.000Z,30.6
2018-08-27T12:26:55.000Z,30.5
2018-08-27T12:27:55.000Z,30.5
2018-08-27T12:29:55.000Z,30.5
2018-08-27T12:31:55.000Z,30.4
2018-08-27T12:32:55.000Z,30.4
2018-08-27T12:34:55.000Z,30.4
2018-08-27T12:35:55.000Z,30.3
2018-08-27T12:36:55.000Z,30.3
2018-08-27T12:38:55.000Z,30.4
2018-08-27T12:40:55.000Z,30.3
2018-08-27T12:42:55.000Z,30.1
2018-08-27T12:43:55.000Z,30.1
2018-08-27T12:44:55.000Z,30.1
2018-08-27T12:46:55.000Z,30.1
2018-08-27T12:48:55.000Z,30
2018-08-27T12:50:55.000Z,30
2018-08-27T12:52:55.000Z,29.9
2018-08-27T12:54:55.000Z,29.9
2018-08-27T12:56:55.000Z,29.9
2018-08-27T12:58:55.000Z,29.9
2018-08-27T12:59:55.000Z,29.9
2018-08-27T13:01:55.000Z,30
2018-08-27T13:03:55.000Z,30
2018-08-27T13:04:55.000Z,30
2018-08-27T13:05:55.000Z,30
2018-08-27T13:06:55.000Z,30
2018-08-27T13:07:55.000Z,30.1
2018-08-27T13:09:40.000Z,30.1
2018-08-27T13:10:55.000Z,30
2018-08-27T13:11:55.000Z,30.1
2018-08-27T13:13:55.000Z,30.1
2018-08-27T13:14:55.000Z,30.1
2018-08-27T13:16:40.000Z,30.1
2018-08-27T13:17:55.000Z,30
2018-08-27T13:19:55.000Z,29.9
2018-08-27T13:21:55.000Z,29.9
2018-08-27T13:22:55.000Z,29.9
2018-08-27T13:23:55.000Z,29.9
2018-08-27T13:25:40.000Z,29.9
2018-08-27T13:26:55.000Z,29.9
2018-08-27T13:27:55.000Z,29.9
2018-08-27T13:28:55.000Z,30
2018-08-27T13:30:55.000Z,30.6
2018-08-27T13:32:55.000Z,31.6
2018-08-27T13:33:55.000Z,32.1
2018-08-27T13:35:55.000Z,32.8
2018-08-27T13:36:55.000Z,33
2018-08-27T13:41:55.000Z,31.1
2018-08-27T13:43:41.000Z,30.7
2018-08-27T13:44:41.000Z,30.5
2018-08-27T13:45:41.000Z,30.5
2018-08-27T13:47:26.000Z,30.4
2018-08-27T13:48:41.000Z,30.3
2018-08-27T13:50:26.000Z,30.2
2018-08-27T13:51:41.000Z,30.1
2018-08-27T13:52:41.000Z,30
2018-08-27T13:54:26.000Z,30
2018-08-27T13:55:41.000Z,30
2018-08-27T13:57:41.000Z,30
2018-08-27T13:59:41.000Z,29.9
2018-08-27T14:00:41.000Z,29.9
2018-08-27T14:01:41.000Z,30
2018-08-27T14:02:41.000Z,30
2018-08-27T14:04:41.000Z,30.1
2018-08-27T14:05:41.000Z,30.1
2018-08-27T14:07:41.000Z,30.2
2018-08-27T14:09:41.000Z,30
2018-08-27T14:11:41.000Z,29.9
2018-08-27T14:13:41.000Z,29.9
2018-08-27T14:14:41.000Z,29.9
2018-08-27T14:16:41.000Z,29.9
2018-08-27T14:17:41.000Z,30
2018-08-27T14:19:41.000Z,29.9
2018-08-27T14:20:41.000Z,29.9
2018-08-27T14:22:41.000Z,29.9
2018-08-27T14:24:41.000Z,29.8
2018-08-27T14:26:41.000Z,29.7
2018-08-27T14:27:41.000Z,29.7
2018-08-27T14:29:41.000Z,29.8
2018-08-27T14:30:41.000Z,29.8
2018-08-27T14:32:41.000Z,29.8
2018-08-27T14:34:41.000Z,29.8
2018-08-27T14:36:41.000Z,29.8
2018-08-27T14:38:41.000Z,29.8
2018-08-27T14:40:41.000Z,29.6
2018-08-27T14:41:41.000Z,29.6
2018-08-27T14:43:41.000Z,29.6
2018-08-27T14:44:41.000Z,29.7
2018-08-27T14:46:41.000Z,29.7
2018-08-27T14:48:41.000Z,29.7
2018-08-27T14:49:41.000Z,29.7
2018-08-27T14:50:41.000Z,29.7
2018-08-27T14:52:41.000Z,29.7
2018-08-27T14:53:41.000Z,29.7
2018-08-27T14:55:41.000Z,29.7
2018-08-27T14:56:41.000Z,29.7
2018-08-27T14:58:41.000Z,29.7
2018-08-27T14:59:41.000Z,29.7
2018-08-27T15:00:41.000Z,29.8
2018-08-27T15:02:41.000Z,29.8
2018-08-27T15:03:41.000Z,29.7
2018-08-27T15:05:41.000Z,29.7
2018-08-27T15:07:41.000Z,29.5
2018-08-27T15:08:41.000Z,29.5
2018-08-27T15:10:41.000Z,29.5
2018-08-27T15:11:41.000Z,29.6
2018-08-27T15:13:41.000Z,29.7
2018-08-27T15:14:41.000Z,29.8
2018-08-27T15:16:41.000Z,29.9
2018-08-27T15:17:41.000Z,30
2018-08-27T15:18:41.000Z,30
2018-08-27T15:20:26.000Z,30.1
2018-08-27T15:21:41.000Z,30.1
2018-08-27T15:23:41.000Z,30.1
2018-08-27T15:25:41.000Z,30.1
2018-08-27T15:27:41.000Z,30.2
2018-08-27T15:29:41.000Z,30.2
2018-08-27T15:31:26.000Z,30.3
2018-08-27T15:32:41.000Z,30.3
2018-08-27T15:33:41.000Z,30.3
2018-08-27T15:35:41.000Z,30.4
2018-08-27T15:37:41.000Z,30.4
2018-08-27T15:38:41.000Z,30.4
2018-08-27T15:39:41.000Z,30.5
2018-08-27T15:40:41.000Z,30.6
2018-08-27T15:42:41.000Z,30.6
2018-08-27T15:44:41.000Z,30.7
2018-08-27T15:46:41.000Z,30.7
2018-08-27T15:47:41.000Z,30.7
2018-08-27T15:49:41.000Z,30.8
2018-08-27T15:51:41.000Z,30.8
2018-08-27T15:53:41.000Z,30.8
2018-08-27T15:55:41.000Z,30.8
2018-08-27T15:57:26.000Z,30.8
2018-08-27T15:58:41.000Z,30.8
2018-08-27T15:59:41.000Z,30.8
2018-08-27T16:01:41.000Z,30.8
2018-08-27T16:03:41.000Z,30.8
2018-08-27T16:04:41.000Z,30.8
2018-08-27T16:06:41.000Z,30.8
2018-08-27T16:07:41.000Z,30.8
2018-08-27T16:09:41.000Z,30.9
2018-08-27T16:10:41.000Z,30.9
2018-08-27T16:11:41.000Z,30.9
2018-08-27T16:13:41.000Z,30.9
2018-08-27T16:15:41.000Z,30.7
2018-08-27T16:16:41.000Z,30.7
2018-08-27T16:18:41.000Z,30.8
2018-08-27T16:19:41.000Z,30.8
2018-08-27T16:21:41.000Z,30.8
2018-08-27T16:22:41.000Z,30.8
2018-08-27T16:23:41.000Z,30.8
2018-08-27T16:25:26.000Z,30.9
2018-08-27T16:26:41.000Z,30.8
2018-08-27T16:28:41.000Z,30.8
2018-08-27T16:30:41.000Z,30.8
2018-08-27T16:32:41.000Z,30.8
2018-08-27T16:34:41.000Z,30.7
2018-08-27T16:35:41.000Z,30.7
2018-08-27T16:37:41.000Z,30.6
2018-08-27T16:39:41.000Z,30.6
2018-08-27T16:41:41.000Z,30.6
2018-08-27T16:43:41.000Z,30.5
2018-08-27T16:44:41.000Z,30.5
2018-08-27T16:46:41.000Z,30.6
2018-08-27T16:48:41.000Z,30.6
2018-08-27T16:49:41.000Z,30.6
2018-08-27T16:50:41.000Z,30.6
2018-08-27T16:51:41.000Z,30.7
2018-08-27T16:53:41.000Z,30.8
2018-08-27T16:55:41.000Z,30.8
2018-08-27T16:57:41.000Z,30.7
2018-08-27T16:58:41.000Z,30.7
2018-08-27T17:00:41.000Z,30.6
2018-08-27T17:02:41.000Z,30.6
2018-08-27T17:03:41.000Z,30.6
2018-08-27T17:04:41.000Z,30.6
2018-08-27T17:06:26.000Z,30.7
2018-08-27T17:07:41.000Z,30.6
2018-08-27T17:08:41.000Z,30.6
2018-08-27T17:10:41.000Z,30.6
2018-08-27T17:12:41.000Z,30.6
2018-08-27T17:14:41.000Z,30.5
2018-08-27T17:16:41.000Z,30.4
2018-08-27T17:17:41.000Z,30.4
2018-08-27T17:19:41.000Z,30.3
2018-08-27T17:20:41.000Z,30.3
2018-08-27T17:22:41.000Z,30.4
2018-08-27T17:24:41.000Z,30.3
2018-08-27T17:25:41.000Z,30.4
2018-08-27T17:26:41.000Z,30.4
2018-08-27T17:28:41.000Z,30.5
2018-08-27T17:30:41.000Z,30.4
2018-08-27T17:31:41.000Z,30.4
2018-08-27T17:32:41.000Z,30.4
2018-08-27T17:33:41.000Z,30.5
2018-08-27T17:35:41.000Z,30.5
2018-08-27T17:36:41.000Z,30.5
2018-08-27T17:38:41.000Z,30.5
2018-08-27T17:40:41.000Z,30.4
2018-08-27T17:42:41.000Z,30.4
2018-08-27T17:44:41.000Z,30.3
2018-08-27T17:45:41.000Z,30.4
2018-08-27T17:47:41.000Z,30.3
2018-08-27T17:49:41.000Z,30.4
2018-08-27T17:50:41.000Z,30.4
2018-08-27T17:52:41.000Z,30.4
2018-08-27T17:54:41.000Z,30.4
2018-08-27T17:55:41.000Z,30.4
2018-08-27T17:57:26.000Z,30.4
2018-08-27T17:58:41.000Z,30.4
2018-08-27T17:59:41.000Z,30.4
2018-08-27T18:01:41.000Z,30.4
2018-08-27T18:02:41.000Z,30.4
2018-08-27T18:04:41.000Z,30.4
2018-08-27T18:06:41.000Z,30.4
2018-08-27T18:08:41.000Z,30.3
2018-08-27T18:10:41.000Z,30.3
2018-08-27T18:12:41.000Z,30.2
2018-08-27T18:14:41.000Z,30.2
2018-08-27T18:15:41.000Z,30.2
2018-08-27T18:17:41.000Z,30.3
2018-08-27T18:18:41.000Z,30.3
2018-08-27T18:19:41.000Z,30.3
2018-08-27T18:21:41.000Z,30.3
2018-08-27T18:22:41.000Z,30.3
2018-08-27T18:24:41.000Z,30.4
2018-08-27T18:26:41.000Z,30.3
2018-08-27T18:27:41.000Z,30.3
2018-08-27T18:29:41.000Z,30.3
2018-08-27T18:31:41.000Z,30.3
2018-08-27T18:32:41.000Z,30.3
2018-08-27T18:34:41.000Z,30.2
2018-08-27T18:36:41.000Z,30.2
2018-08-27T18:38:25.000Z,30.2
2018-08-27T18:39:41.000Z,30.2
2018-08-27T18:40:41.000Z,30.2
2018-08-27T18:41:41.000Z,30.2
2018-08-27T18:43:41.000Z,30.2
2018-08-27T18:45:41.000Z,30.2
2018-08-27T18:47:41.000Z,30.2
2018-08-27T18:49:41.000Z,30.2
2018-08-27T18:50:41.000Z,30.2
2018-08-27T18:52:41.000Z,30.2
2018-08-27T18:54:41.000Z,30.2
2018-08-27T18:56:41.000Z,30.2
2018-08-27T18:58:41.000Z,30.1
2018-08-27T18:59:41.000Z,30.1
2018-08-27T19:00:41.000Z,30.1
2018-08-27T19:01:41.000Z,30.2
2018-08-27T19:02:41.000Z,30.2
2018-08-27T19:04:41.000Z,30.2
2018-08-27T19:05:41.000Z,30.2
2018-08-27T19:06:41.000Z,30.2
2018-08-27T19:08:25.000Z,30.3
2018-08-27T19:09:41.000Z,30.2
2018-08-27T19:10:41.000Z,30.2
2018-08-27T19:12:25.000Z,30.2
2018-08-27T19:13:41.000Z,30.2
2018-08-27T19:15:41.000Z,30.1
2018-08-27T19:17:41.000Z,30.1
2018-08-27T19:18:41.000Z,30.1
2018-08-27T19:19:41.000Z,30.2
2018-08-27T19:21:41.000Z,30.3
2018-08-27T19:22:41.000Z,30.3
2018-08-27T19:24:41.000Z,30.3
2018-08-27T19:26:41.000Z,30.2
2018-08-27T19:28:41.000Z,30.2
2018-08-27T19:30:41.000Z,30.1
2018-08-27T19:31:41.000Z,30.1
2018-08-27T19:33:41.000Z,30.1
2018-08-27T19:34:41.000Z,30.1
2018-08-27T19:35:41.000Z,30.2
2018-08-27T19:37:41.000Z,30.2
2018-08-27T19:39:26.000Z,30.2
2018-08-27T19:40:41.000Z,30.2
2018-08-27T19:42:41.000Z,30.1
2018-08-27T19:44:26.000Z,30.1
2018-08-27T19:45:41.000Z,30.1
2018-08-27T19:47:41.000Z,30.1
2018-08-27T19:49:41.000Z,30
2018-08-27T19:50:41.000Z,30
2018-08-27T19:52:26.000Z,30
2018-08-27T19:53:41.000Z,30
2018-08-27T19:55:41.000Z,30
2018-08-27T19:57:41.000Z,30
2018-08-27T19:59:41.000Z,30
2018-08-27T20:01:41.000Z,30
2018-08-27T20:02:41.000Z,30
2018-08-27T20:04:41.000Z,30
2018-08-27T20:05:41.000Z,30
2018-08-27T20:07:41.000Z,30
2018-08-27T20:09:41.000Z,30
2018-08-27T20:11:41.000Z,30
2018-08-27T20:13:41.000Z,30
2018-08-27T20:15:41.000Z,30
2018-08-27T20:17:26.000Z,30
2018-08-27T20:18:41.000Z,30
2018-08-27T20:19:41.000Z,30
2018-08-27T20:20:41.000Z,30.1
2018-08-27T20:22:41.000Z,30.1
2018-08-27T20:23:41.000Z,30.1
2018-08-27T20:25:41.000Z,30.2
2018-08-27T20:26:41.000Z,30.2
2018-08-27T20:28:40.000Z,30.2
2018-08-27T20:30:40.000Z,30.2
2018-08-27T20:32:40.000Z,30.2
2018-08-27T20:33:40.000Z,30.2
2018-08-27T20:34:40.000Z,30.2
2018-08-27T20:36:40.000Z,30.3
2018-08-27T20:38:40.000Z,30.3
2018-08-27T20:39:40.000Z,30.3
2018-08-27T20:41:40.000Z,30.3
2018-08-27T20:43:25.000Z,30.3
2018-08-27T20:44:40.000Z,30.2
2018-08-27T20:46:25.000Z,30.2
2018-08-27T20:47:40.000Z,30.2
2018-08-27T20:48:40.000Z,30.2
2018-08-27T20:50:40.000Z,30.2
2018-08-27T20:52:40.000Z,30.2
2018-08-27T20:53:40.000Z,30.2
2018-08-27T20:55:40.000Z,30.2
2018-08-27T20:57:40.000Z,30.1
2018-08-27T20:58:40.000Z,30.1
2018-08-27T20:59:40.000Z,30.2
2018-08-27T21:00:40.000Z,30.2
2018-08-27T21:01:40.000Z,30.3
2018-08-27T21:03:40.000Z,30.3
2018-08-27T21:05:40.000Z,30.3
2018-08-27T21:06:40.000Z,30.3
2018-08-27T21:08:40.000Z,30.3
2018-08-27T21:09:40.000Z,30.3
2018-08-27T21:10:40.000Z,30.3
2018-08-27T21:12:40.000Z,30.3
2018-08-27T21:13:40.000Z,30.3
2018-08-27T21:14:40.000Z,30.3
2018-08-27T21:16:40.000Z,30.4
2018-08-27T21:17:40.000Z,30.3
2018-08-27T21:19:40.000Z,30.4
2018-08-27T21:21:40.000Z,30.3
2018-08-27T21:23:40.000Z,30.2
2018-08-27T21:25:40.000Z,30.1
2018-08-27T21:27:40.000Z,30.1
2018-08-27T21:29:40.000Z,30